Time;durP1;ratioP1;P1;durP2;ratioP2;P2;SDS_P1;SDS_P2;PMS_P1;PMS_P2;Temp;Humidity;BMP_temperature;BMP_pressure;BME280_temperature;BME280_humidity;BME280_pressure;Samples;Min_cycle;Max_cycle;Signal;HPM_P1;HPM_P2
2023/08/01 00:01:41;;;;;;;6.83;3.70;;;;;;;;;;742008;190;922347;-55
2023/08/01 00:04:07;;;;;;;5.83;2.80;;;;;;;;;;738698;190;918313;-55
2023/08/01 00:06:33;;;;;;;9.80;3.03;;;;;;;;;;738815;190;918254;-60
2023/08/01 00:08:59;;;;;;;7.63;2.47;;;;;;;;;;741734;190;916649;-55
2023/08/01 00:11:24;;;;;;;6.37;3.60;;;;;;;;;;737823;190;852240;-55
2023/08/01 00:13:50;;;;;;;8.30;3.63;;;;;;;;;;738396;190;918475;-61
2023/08/01 00:16:16;;;;;;;7.70;3.40;;;;;;;;;;742410;190;916685;-55
2023/08/01 00:18:42;;;;;;;13.47;3.30;;;;;;;;;;736452;190;915752;-60
2023/08/01 00:21:11;;;;;;;4.70;3.43;;;;;;;;;;737096;190;918613;-61
2023/08/01 00:23:35;;;;;;;7.67;2.97;;;;;;;;;;736565;190;919277;-55
2023/08/01 00:26:01;;;;;;;5.73;3.00;;;;;;;;;;739934;189;919680;-55
2023/08/01 00:28:27;;;;;;;8.60;3.15;;;;;;;;;;736617;189;919357;-63
2023/08/01 00:30:59;;;;;;;7.03;3.07;;;;;;;;;;738472;190;920692;-61
2023/08/01 00:33:25;;;;;;;4.43;2.67;;;;;;;;;;744185;189;921237;-55
2023/08/01 00:35:50;;;;;;;4.03;2.87;;;;;;;;;;736191;190;940776;-55
2023/08/01 00:38:16;;;;;;;6.70;3.10;;;;;;;;;;738920;190;823071;-55
2023/08/01 00:40:42;;;;;;;5.60;2.73;;;;;;;;;;739951;190;918468;-55
2023/08/01 00:43:08;;;;;;;4.07;2.60;;;;;;;;;;744008;190;917966;-55
2023/08/01 00:45:34;;;;;;;10.23;3.53;;;;;;;;;;739089;190;918386;-62
2023/08/01 00:48:00;;;;;;;6.87;3.10;;;;;;;;;;739147;190;901295;-55
2023/08/01 00:50:25;;;;;;;5.63;2.50;;;;;;;;;;743772;190;919320;-64
2023/08/01 00:52:51;;;;;;;8.43;3.60;;;;;;;;;;737612;190;919491;-62
2023/08/01 00:55:17;;;;;;;5.20;2.87;;;;;;;;;;737547;190;917858;-61
2023/08/01 00:57:43;;;;;;;7.27;2.60;;;;;;;;;;741962;190;918937;-61
2023/08/01 01:00:09;;;;;;;4.60;2.87;;;;;;;;;;737981;190;919705;-55
2023/08/01 01:02:35;;;;;;;5.60;2.50;;;;;;;;;;738003;190;918980;-62
2023/08/01 01:05:02;;;;;;;5.70;2.40;;;;;;;;;;736953;189;920209;-56
2023/08/01 01:07:27;;;;;;;12.50;2.77;;;;;;;;;;746936;187;911899;-55
2023/08/01 01:09:53;;;;;;;9.40;3.80;;;;;;;;;;737796;190;919827;-55
2023/08/01 01:12:19;;;;;;;3.93;2.50;;;;;;;;;;737758;190;919827;-56
2023/08/01 01:14:45;;;;;;;4.80;3.03;;;;;;;;;;742522;190;855466;-60
2023/08/01 01:17:10;;;;;;;3.90;2.63;;;;;;;;;;736232;190;919815;-61
2023/08/01 01:19:36;;;;;;;9.93;2.70;;;;;;;;;;738572;190;945304;-60
2023/08/01 01:22:05;;;;;;;7.03;3.03;;;;;;;;;;742366;190;915876;-55
2023/08/01 01:24:31;;;;;;;3.70;2.40;;;;;;;;;;737111;189;919800;-57
2023/08/01 01:26:59;;;;;;;6.90;3.22;;;;;;;;;;738062;190;826601;-57
2023/08/01 01:29:23;;;;;;;6.10;2.77;;;;;;;;;;737418;190;918086;-57
2023/08/01 01:31:49;;;;;;;7.93;2.60;;;;;;;;;;747025;187;918152;-63
2023/08/01 01:34:15;;;;;;;5.07;2.80;;;;;;;;;;738000;190;919381;-63
2023/08/01 01:36:41;;;;;;;13.60;3.43;;;;;;;;;;736739;190;921280;-62
2023/08/01 01:39:06;;;;;;;4.03;2.67;;;;;;;;;;742766;189;918269;-62
2023/08/01 01:41:32;;;;;;;8.40;3.20;;;;;;;;;;738327;190;915563;-62
2023/08/01 01:43:58;;;;;;;6.40;2.83;;;;;;;;;;737076;190;920893;-57
2023/08/01 01:46:24;;;;;;;5.90;2.60;;;;;;;;;;745046;190;911874;-57
2023/08/01 01:48:50;;;;;;;4.27;2.27;;;;;;;;;;737731;190;919704;-56
2023/08/01 01:51:16;;;;;;;4.93;2.83;;;;;;;;;;739247;190;916397;-57
2023/08/01 01:53:41;;;;;;;6.53;3.27;;;;;;;;;;742056;190;919014;-56
2023/08/01 01:56:07;;;;;;;6.40;2.57;;;;;;;;;;738556;190;917931;-57
2023/08/01 01:58:33;;;;;;;4.80;2.80;;;;;;;;;;736943;190;919527;-57
2023/08/01 02:00:59;;;;;;;5.23;3.47;;;;;;;;;;737044;190;914759;-62
2023/08/01 02:03:25;;;;;;;3.33;2.27;;;;;;;;;;742317;190;917820;-57
2023/08/01 02:05:51;;;;;;;4.00;2.70;;;;;;;;;;736911;190;920156;-62
2023/08/01 02:08:16;;;;;;;10.83;2.50;;;;;;;;;;736990;190;918763;-63
2023/08/01 02:10:42;;;;;;;15.47;2.70;;;;;;;;;;740194;190;920764;-56
2023/08/01 02:13:08;;;;;;;6.33;2.50;;;;;;;;;;736427;190;920769;-63
2023/08/01 02:15:34;;;;;;;6.17;3.00;;;;;;;;;;737453;190;919433;-62
2023/08/01 02:18:00;;;;;;;6.00;2.90;;;;;;;;;;741495;190;815002;-63
2023/08/01 02:20:26;;;;;;;8.20;2.77;;;;;;;;;;738124;190;918243;-63
2023/08/01 02:22:52;;;;;;;5.00;2.78;;;;;;;;;;737154;190;918668;-57
2023/08/01 02:25:18;;;;;;;6.47;3.07;;;;;;;;;;740796;190;915183;-62
2023/08/01 02:27:44;;;;;;;7.03;2.77;;;;;;;;;;743281;187;913335;-63
2023/08/01 02:30:10;;;;;;;4.40;2.27;;;;;;;;;;735626;190;957292;-57
2023/08/01 02:32:36;;;;;;;3.40;2.43;;;;;;;;;;736188;190;919393;-57
2023/08/01 02:35:02;;;;;;;5.73;2.80;;;;;;;;;;742446;190;918798;-57
2023/08/01 02:37:27;;;;;;;4.90;2.70;;;;;;;;;;737428;188;918505;-63
2023/08/01 02:39:53;;;;;;;3.70;2.83;;;;;;;;;;736886;190;920070;-57
2023/08/01 02:42:19;;;;;;;6.67;2.57;;;;;;;;;;742061;190;816608;-57
2023/08/01 02:44:45;;;;;;;5.13;2.60;;;;;;;;;;736407;190;919151;-57
2023/08/01 02:47:11;;;;;;;5.73;2.93;;;;;;;;;;737998;190;918620;-63
2023/08/01 02:49:37;;;;;;;5.73;2.63;;;;;;;;;;742633;189;919461;-63
2023/08/01 02:52:03;;;;;;;4.63;3.47;;;;;;;;;;739295;190;919548;-63
2023/08/01 02:54:28;;;;;;;7.37;3.07;;;;;;;;;;736733;190;918714;-57
2023/08/01 02:56:54;;;;;;;6.07;3.10;;;;;;;;;;735947;190;917997;-58
2023/08/01 02:59:20;;;;;;;6.87;3.47;;;;;;;;;;743277;190;918871;-57
2023/08/01 03:01:46;;;;;;;4.90;3.67;;;;;;;;;;737861;190;919346;-64
2023/08/01 03:04:12;;;;;;;4.03;2.80;;;;;;;;;;740205;190;827551;-63
2023/08/01 03:06:38;;;;;;;6.00;3.37;;;;;;;;;;744094;190;919188;-57
2023/08/01 03:09:07;;;;;;;10.33;3.33;;;;;;;;;;737958;190;922525;-60
2023/08/01 03:11:29;;;;;;;5.00;3.53;;;;;;;;;;739056;190;910796;-58
2023/08/01 03:13:55;;;;;;;5.33;3.20;;;;;;;;;;743373;190;914785;-64
2023/08/01 03:16:21;;;;;;;4.53;3.30;;;;;;;;;;738292;190;919557;-63
2023/08/01 03:18:47;;;;;;;5.00;3.25;;;;;;;;;;736179;190;1000090;-63
2023/08/01 03:21:13;;;;;;;4.28;3.10;;;;;;;;;;740562;190;919109;-57
2023/08/01 03:23:39;;;;;;;6.80;3.80;;;;;;;;;;737370;190;918854;-58
2023/08/01 03:26:05;;;;;;;5.63;3.20;;;;;;;;;;738163;190;919239;-63
2023/08/01 03:28:31;;;;;;;6.37;3.50;;;;;;;;;;736578;190;919781;-63
2023/08/01 03:30:57;;;;;;;5.10;3.50;;;;;;;;;;742519;190;914031;-63
2023/08/01 03:33:22;;;;;;;6.23;4.00;;;;;;;;;;737761;190;919409;-64
2023/08/01 03:35:48;;;;;;;6.07;2.70;;;;;;;;;;736478;190;920562;-57
2023/08/01 03:38:14;;;;;;;7.70;3.37;;;;;;;;;;742215;190;914566;-57
2023/08/01 03:40:40;;;;;;;4.50;3.10;;;;;;;;;;738913;190;791840;-63
2023/08/01 03:43:06;;;;;;;6.50;3.75;;;;;;;;;;738180;190;816961;-57
2023/08/01 03:45:32;;;;;;;5.03;3.40;;;;;;;;;;743858;190;833325;-57
2023/08/01 03:47:57;;;;;;;5.10;2.93;;;;;;;;;;737372;190;916249;-63
2023/08/01 03:50:23;;;;;;;9.70;3.97;;;;;;;;;;736335;190;918897;-57
2023/08/01 03:52:49;;;;;;;4.53;2.87;;;;;;;;;;737400;190;915985;-58
2023/08/01 03:55:16;;;;;;;6.23;3.23;;;;;;;;;;738738;190;916427;-64
2023/08/01 03:57:42;;;;;;;3.70;2.70;;;;;;;;;;736850;190;920750;-64
2023/08/01 04:00:13;;;;;;;11.00;3.73;;;;;;;;;;738008;190;916055;-63
2023/08/01 04:02:33;;;;;;;8.50;3.37;;;;;;;;;;744851;188;818199;-57
2023/08/01 04:04:59;;;;;;;9.03;4.13;;;;;;;;;;740011;188;912156;-58
2023/08/01 04:07:25;;;;;;;10.03;3.70;;;;;;;;;;739007;190;898856;-64
2023/08/01 04:09:50;;;;;;;4.70;3.20;;;;;;;;;;742780;190;814521;-58
2023/08/01 04:12:16;;;;;;;4.75;3.35;;;;;;;;;;737970;190;900064;-58
2023/08/01 04:14:43;;;;;;;12.18;3.72;;;;;;;;;;738485;190;919229;-58
2023/08/01 04:17:09;;;;;;;10.07;4.20;;;;;;;;;;743217;190;880817;-62
2023/08/01 04:19:35;;;;;;;5.97;4.17;;;;;;;;;;744968;187;917945;-63
2023/08/01 04:22:00;;;;;;;6.40;3.67;;;;;;;;;;736135;190;946910;-63
2023/08/01 04:24:27;;;;;;;14.00;4.03;;;;;;;;;;737483;190;918237;-63
2023/08/01 04:26:52;;;;;;;4.50;3.33;;;;;;;;;;743873;190;814278;-64
2023/08/01 04:29:18;;;;;;;13.53;4.10;;;;;;;;;;737836;190;921252;-58
2023/08/01 04:31:44;;;;;;;9.30;4.43;;;;;;;;;;737536;190;919041;-57
2023/08/01 04:34:10;;;;;;;6.43;3.37;;;;;;;;;;743378;190;916404;-58
2023/08/01 04:36:36;;;;;;;14.27;3.67;;;;;;;;;;733615;190;945704;-64
2023/08/01 04:39:01;;;;;;;8.00;4.17;;;;;;;;;;738162;190;1021458;-58
2023/08/01 04:41:27;;;;;;;5.20;3.70;;;;;;;;;;741147;190;919256;-63
2023/08/01 04:43:53;;;;;;;7.90;4.63;;;;;;;;;;736152;190;917914;-64
2023/08/01 04:46:19;;;;;;;6.20;3.77;;;;;;;;;;739039;190;843226;-64
2023/08/01 04:48:45;;;;;;;10.03;3.50;;;;;;;;;;739221;190;819455;-63
2023/08/01 04:51:11;;;;;;;7.37;3.53;;;;;;;;;;744297;190;814883;-58
2023/08/01 04:53:37;;;;;;;5.27;3.77;;;;;;;;;;737314;190;915856;-58
2023/08/01 04:56:02;;;;;;;5.28;3.97;;;;;;;;;;737213;190;919467;-58
2023/08/01 04:58:30;;;;;;;6.90;3.33;;;;;;;;;;742965;190;920828;-58
2023/08/01 05:00:54;;;;;;;4.90;3.57;;;;;;;;;;738918;190;816932;-64
2023/08/01 05:03:20;;;;;;;6.83;3.63;;;;;;;;;;736181;190;919395;-65
2023/08/01 05:05:46;;;;;;;6.27;4.33;;;;;;;;;;742627;190;816248;-65
2023/08/01 05:08:12;;;;;;;8.00;3.87;;;;;;;;;;737094;190;919319;-58
2023/08/01 05:10:37;;;;;;;7.73;3.93;;;;;;;;;;736666;190;918813;-64
2023/08/01 05:13:03;;;;;;;8.77;3.70;;;;;;;;;;740521;188;915729;-63
2023/08/01 05:15:29;;;;;;;4.43;3.47;;;;;;;;;;741092;190;823158;-58
2023/08/01 05:17:55;;;;;;;6.37;4.37;;;;;;;;;;737399;190;918751;-58
2023/08/01 05:20:21;;;;;;;5.07;3.55;;;;;;;;;;738778;190;926541;-58
2023/08/01 05:22:47;;;;;;;5.00;3.47;;;;;;;;;;743590;190;918111;-65
2023/08/01 05:25:12;;;;;;;6.03;3.30;;;;;;;;;;737171;190;919601;-58
2023/08/01 05:27:38;;;;;;;4.87;3.80;;;;;;;;;;738812;190;919649;-64
2023/08/01 05:30:05;;;;;;;4.90;3.43;;;;;;;;;;743430;190;922661;-58
2023/08/01 05:32:30;;;;;;;5.83;3.80;;;;;;;;;;737261;190;924960;-62
2023/08/01 05:34:56;;;;;;;6.43;3.30;;;;;;;;;;738606;189;918122;-58
2023/08/01 05:37:22;;;;;;;7.90;3.80;;;;;;;;;;744091;190;815373;-58
2023/08/01 05:39:48;;;;;;;6.27;4.13;;;;;;;;;;738659;190;818249;-58
2023/08/01 05:42:14;;;;;;;6.80;3.65;;;;;;;;;;736457;190;914344;-58
2023/08/01 05:44:40;;;;;;;5.60;4.10;;;;;;;;;;738170;190;921784;-64
2023/08/01 05:47:05;;;;;;;7.40;3.53;;;;;;;;;;742749;190;822950;-58
2023/08/01 05:49:31;;;;;;;4.93;3.50;;;;;;;;;;736054;190;919563;-63
2023/08/01 05:51:57;;;;;;;5.77;3.70;;;;;;;;;;736448;190;898543;-64
2023/08/01 05:54:23;;;;;;;5.73;3.60;;;;;;;;;;741852;190;915718;-64
2023/08/01 05:56:49;;;;;;;7.10;2.90;;;;;;;;;;736557;190;918385;-65
2023/08/01 05:59:15;;;;;;;6.57;4.03;;;;;;;;;;737458;190;919574;-59
2023/08/01 06:01:40;;;;;;;7.17;3.60;;;;;;;;;;742142;190;915364;-58
2023/08/01 06:04:06;;;;;;;4.47;3.40;;;;;;;;;;738667;190;910443;-58
2023/08/01 06:06:32;;;;;;;14.20;4.70;;;;;;;;;;739882;190;821065;-58
2023/08/01 06:08:58;;;;;;;10.27;4.60;;;;;;;;;;738338;190;822704;-63
2023/08/01 06:11:24;;;;;;;13.67;4.80;;;;;;;;;;738141;190;817124;-64
2023/08/01 06:13:50;;;;;;;10.97;4.03;;;;;;;;;;737935;190;920306;-64
2023/08/01 06:16:15;;;;;;;7.33;4.13;;;;;;;;;;737973;190;917823;-58
2023/08/01 06:18:41;;;;;;;7.30;4.40;;;;;;;;;;745003;190;817456;-64
2023/08/01 06:21:07;;;;;;;6.30;3.60;;;;;;;;;;736679;190;917405;-63
2023/08/01 06:23:33;;;;;;;9.70;4.05;;;;;;;;;;738271;189;893896;-65
2023/08/01 06:25:59;;;;;;;7.30;3.93;;;;;;;;;;744166;190;896278;-59
2023/08/01 06:28:25;;;;;;;10.50;4.40;;;;;;;;;;740531;190;880121;-58
2023/08/01 06:30:50;;;;;;;7.13;3.60;;;;;;;;;;737758;190;921885;-65
2023/08/01 06:33:16;;;;;;;5.93;3.67;;;;;;;;;;742014;190;924578;-58
2023/08/01 06:35:42;;;;;;;6.93;4.00;;;;;;;;;;737064;190;919679;-58
2023/08/01 06:38:08;;;;;;;10.02;4.10;;;;;;;;;;739525;190;918974;-58
2023/08/01 06:40:34;;;;;;;7.17;4.63;;;;;;;;;;739177;190;919539;-64
2023/08/01 06:43:00;;;;;;;5.20;3.73;;;;;;;;;;741683;190;916917;-64
2023/08/01 06:45:25;;;;;;;5.70;3.73;;;;;;;;;;737793;190;918562;-64
2023/08/01 06:47:51;;;;;;;6.53;3.90;;;;;;;;;;740863;190;816744;-64
2023/08/01 06:50:17;;;;;;;6.10;3.97;;;;;;;;;;739876;190;922537;-65
2023/08/01 06:52:43;;;;;;;5.87;3.80;;;;;;;;;;737043;190;918407;-65
2023/08/01 06:55:09;;;;;;;9.07;4.00;;;;;;;;;;738280;190;902552;-65
2023/08/01 06:57:35;;;;;;;11.30;4.40;;;;;;;;;;743139;190;919075;-64
2023/08/01 07:00:01;;;;;;;5.57;3.80;;;;;;;;;;734802;190;904030;-58
2023/08/01 07:02:26;;;;;;;9.90;4.10;;;;;;;;;;738850;190;918448;-64
2023/08/01 07:04:52;;;;;;;6.13;3.37;;;;;;;;;;738839;190;822250;-59
2023/08/01 07:07:18;;;;;;;5.93;3.60;;;;;;;;;;744351;188;919083;-58
2023/08/01 07:09:44;;;;;;;7.30;3.90;;;;;;;;;;738388;190;918441;-59
2023/08/01 07:12:10;;;;;;;7.50;3.77;;;;;;;;;;738239;190;919635;-59
2023/08/01 07:14:36;;;;;;;5.03;3.40;;;;;;;;;;742452;190;910762;-65
2023/08/01 07:17:01;;;;;;;5.13;3.83;;;;;;;;;;737335;190;918497;-64
2023/08/01 07:19:27;;;;;;;6.50;3.87;;;;;;;;;;733575;189;946544;-58
2023/08/01 07:21:53;;;;;;;5.50;4.00;;;;;;;;;;742443;190;917236;-66
2023/08/01 07:24:19;;;;;;;5.10;3.43;;;;;;;;;;736024;190;914606;-64
2023/08/01 07:26:45;;;;;;;6.57;4.32;;;;;;;;;;736697;190;911590;-59
2023/08/01 07:29:14;;;;;;;6.43;3.77;;;;;;;;;;735825;191;912978;-65
2023/08/01 07:31:37;;;;;;;6.23;3.50;;;;;;;;;;737725;190;913791;-59
2023/08/01 07:34:02;;;;;;;5.93;3.70;;;;;;;;;;737429;190;919070;-64
2023/08/01 07:36:28;;;;;;;6.67;3.50;;;;;;;;;;737807;189;922034;-64
2023/08/01 07:38:56;;;;;;;5.50;4.10;;;;;;;;;;742656;190;916393;-64
2023/08/01 07:41:20;;;;;;;5.60;3.80;;;;;;;;;;738237;188;914585;-64
2023/08/01 07:43:46;;;;;;;7.17;4.60;;;;;;;;;;739101;190;923528;-65
2023/08/01 07:46:12;;;;;;;4.70;3.60;;;;;;;;;;743644;190;902433;-58
2023/08/01 07:48:37;;;;;;;7.87;4.40;;;;;;;;;;739531;190;917485;-64
2023/08/01 07:51:05;;;;;;;5.15;3.78;;;;;;;;;;738363;190;899822;-65
2023/08/01 07:53:29;;;;;;;6.50;3.80;;;;;;;;;;743680;190;885242;-58
2023/08/01 07:55:55;;;;;;;6.93;3.90;;;;;;;;;;738373;190;916834;-58
2023/08/01 07:58:21;;;;;;;10.37;4.00;;;;;;;;;;738110;190;919061;-58
2023/08/01 08:00:47;;;;;;;6.83;3.67;;;;;;;;;;738561;190;915497;-64
2023/08/01 08:03:13;;;;;;;7.33;4.20;;;;;;;;;;742135;190;877369;-58
2023/08/01 08:05:39;;;;;;;6.37;4.07;;;;;;;;;;736162;190;918580;-58
2023/08/01 08:08:05;;;;;;;6.23;4.60;;;;;;;;;;736871;190;920517;-58
2023/08/01 08:10:30;;;;;;;5.83;4.67;;;;;;;;;;743858;190;918790;-64
2023/08/01 08:12:56;;;;;;;9.53;4.33;;;;;;;;;;738276;190;919776;-65
2023/08/01 08:15:23;;;;;;;11.03;4.47;;;;;;;;;;737070;190;919863;-65
2023/08/01 08:17:48;;;;;;;7.40;4.17;;;;;;;;;;742956;190;907669;-57
2023/08/01 08:20:14;;;;;;;5.50;4.00;;;;;;;;;;737432;190;916623;-59
2023/08/01 08:22:39;;;;;;;6.90;3.87;;;;;;;;;;731809;191;919174;-64
2023/08/01 08:25:05;;;;;;;11.63;4.80;;;;;;;;;;740418;190;895673;-65
2023/08/01 08:27:31;;;;;;;14.03;6.43;;;;;;;;;;742692;190;618542;-58
2023/08/01 08:29:57;;;;;;;10.87;4.80;;;;;;;;;;741744;190;634956;-66
2023/08/01 08:32:23;;;;;;;6.87;4.60;;;;;;;;;;741462;190;638670;-65
2023/08/01 08:34:49;;;;;;;7.40;4.70;;;;;;;;;;745272;190;615133;-66
2023/08/01 08:37:15;;;;;;;9.30;4.93;;;;;;;;;;738239;190;921715;-58
2023/08/01 08:39:41;;;;;;;6.97;4.47;;;;;;;;;;736607;190;907057;-59
2023/08/01 08:42:06;;;;;;;18.60;4.23;;;;;;;;;;744981;190;812549;-66
2023/08/01 08:44:34;;;;;;;9.30;5.33;;;;;;;;;;740122;190;807060;-67
2023/08/01 08:46:58;;;;;;;5.40;3.87;;;;;;;;;;737628;188;818267;-58
2023/08/01 08:49:24;;;;;;;6.50;3.60;;;;;;;;;;743490;190;918484;-59
2023/08/01 08:51:50;;;;;;;6.07;4.13;;;;;;;;;;737879;190;918445;-57
2023/08/01 08:54:16;;;;;;;6.90;5.00;;;;;;;;;;738702;190;823318;-65
2023/08/01 08:56:41;;;;;;;10.50;5.10;;;;;;;;;;741351;190;907979;-65
2023/08/01 08:59:07;;;;;;;5.33;4.27;;;;;;;;;;739803;190;919648;-67
2023/08/01 09:01:34;;;;;;;6.60;4.40;;;;;;;;;;738848;190;947872;-58
2023/08/01 09:03:59;;;;;;;10.23;5.15;;;;;;;;;;741944;190;880920;-59
2023/08/01 09:06:25;;;;;;;8.80;4.53;;;;;;;;;;742912;190;919412;-67
2023/08/01 09:08:51;;;;;;;8.90;4.90;;;;;;;;;;739391;190;813346;-58
2023/08/01 09:11:16;;;;;;;6.67;4.90;;;;;;;;;;739652;190;815122;-65
2023/08/01 09:13:42;;;;;;;6.23;4.40;;;;;;;;;;739893;190;815318;-59
2023/08/01 09:16:08;;;;;;;8.20;4.67;;;;;;;;;;735993;190;917127;-66
2023/08/01 09:18:34;;;;;;;5.87;4.03;;;;;;;;;;738670;190;948906;-59
2023/08/01 09:21:02;;;;;;;6.63;4.17;;;;;;;;;;742709;190;918493;-66
2023/08/01 09:23:27;;;;;;;6.40;4.53;;;;;;;;;;738131;190;902205;-66
2023/08/01 09:25:52;;;;;;;11.25;5.25;;;;;;;;;;737746;190;915992;-59
2023/08/01 09:28:19;;;;;;;7.80;4.67;;;;;;;;;;736680;190;916236;-67
2023/08/01 09:30:46;;;;;;;8.67;5.07;;;;;;;;;;741484;190;923599;-59
2023/08/01 09:33:12;;;;;;;8.20;5.50;;;;;;;;;;738057;189;918961;-67
2023/08/01 09:35:38;;;;;;;7.33;5.43;;;;;;;;;;738391;190;817872;-68
2023/08/01 09:38:04;;;;;;;7.87;6.07;;;;;;;;;;743537;190;918840;-59
2023/08/01 09:40:37;;;;;;;12.73;5.50;;;;;;;;;;737492;190;915280;-59
2023/08/01 09:43:03;;;;;;;9.63;5.60;;;;;;;;;;737847;190;921063;-65
2023/08/01 09:45:29;;;;;;;6.13;4.83;;;;;;;;;;737914;190;917031;-58
2023/08/01 09:47:55;;;;;;;12.03;5.40;;;;;;;;;;742977;190;880145;-59
2023/08/01 09:50:20;;;;;;;7.43;5.13;;;;;;;;;;737065;190;912895;-59
2023/08/01 09:52:52;;;;;;;10.00;6.27;;;;;;;;;;737336;190;918899;-59
2023/08/01 09:55:13;;;;;;;18.02;5.72;;;;;;;;;;742508;190;913817;-58
2023/08/01 09:57:39;;;;;;;9.87;5.93;;;;;;;;;;736689;190;912334;-66
2023/08/01 10:00:05;;;;;;;6.83;5.27;;;;;;;;;;739192;188;909170;-60
2023/08/01 10:02:31;;;;;;;8.45;5.80;;;;;;;;;;741927;186;921841;-66
2023/08/01 10:04:57;;;;;;;8.13;6.10;;;;;;;;;;745694;187;925801;-66
2023/08/01 10:07:23;;;;;;;13.73;6.63;;;;;;;;;;738765;190;916030;-66
2023/08/01 10:09:49;;;;;;;11.17;7.17;;;;;;;;;;740634;190;916079;-68
2023/08/01 10:12:15;;;;;;;11.90;6.40;;;;;;;;;;742328;190;943338;-60
2023/08/01 10:14:41;;;;;;;8.37;6.10;;;;;;;;;;734025;189;922872;-60
2023/08/01 10:17:07;;;;;;;8.90;6.13;;;;;;;;;;738685;190;915651;-60
2023/08/01 10:19:33;;;;;;;8.00;5.83;;;;;;;;;;741043;190;919046;-59
2023/08/01 10:21:59;;;;;;;11.53;5.20;;;;;;;;;;740669;190;716002;-66
2023/08/01 10:24:25;;;;;;;8.30;5.77;;;;;;;;;;738998;190;816806;-60
2023/08/01 10:26:51;;;;;;;6.90;5.60;;;;;;;;;;746649;189;623477;-60
2023/08/01 10:29:17;;;;;;;7.60;5.50;;;;;;;;;;741075;190;630745;-59
2023/08/01 10:31:48;;;;;;;8.37;5.90;;;;;;;;;;736157;190;919196;-68
2023/08/01 10:34:14;;;;;;;8.07;5.73;;;;;;;;;;737095;190;922421;-66
2023/08/01 10:36:40;;;;;;;8.90;4.80;;;;;;;;;;741110;190;920511;-59
2023/08/01 10:39:06;;;;;;;10.13;6.10;;;;;;;;;;736021;190;918712;-67
2023/08/01 10:41:31;;;;;;;7.03;5.33;;;;;;;;;;738455;190;919214;-59
2023/08/01 10:44:03;;;;;;;7.60;5.30;;;;;;;;;;742271;190;916673;-67
2023/08/01 10:46:29;;;;;;;7.07;4.73;;;;;;;;;;743261;190;815793;-67
2023/08/01 10:48:55;;;;;;;11.50;4.80;;;;;;;;;;738104;190;921824;-59
2023/08/01 10:51:21;;;;;;;6.57;4.90;;;;;;;;;;738892;190;913726;-66
2023/08/01 10:53:47;;;;;;;8.77;6.20;;;;;;;;;;742029;190;912903;-60
2023/08/01 10:56:15;;;;;;;6.53;5.50;;;;;;;;;;736342;190;928683;-59
2023/08/01 10:58:41;;;;;;;7.23;4.70;;;;;;;;;;737718;190;917969;-59
2023/08/01 11:01:07;;;;;;;6.70;4.60;;;;;;;;;;740931;190;918529;-67
2023/08/01 11:03:33;;;;;;;7.17;5.30;;;;;;;;;;737280;190;916727;-59
2023/08/01 11:06:00;;;;;;;6.37;4.80;;;;;;;;;;737875;190;918322;-60
2023/08/01 11:08:25;;;;;;;6.70;4.87;;;;;;;;;;740510;190;919182;-59
2023/08/01 11:10:51;;;;;;;8.03;5.00;;;;;;;;;;740490;189;889101;-58
2023/08/01 11:13:17;;;;;;;14.53;4.97;;;;;;;;;;739458;190;917287;-59
2023/08/01 11:15:42;;;;;;;8.63;5.20;;;;;;;;;;741003;190;914236;-59
2023/08/01 11:18:09;;;;;;;5.90;4.57;;;;;;;;;;743255;190;916456;-59
2023/08/01 11:20:35;;;;;;;7.50;5.03;;;;;;;;;;738328;190;916118;-60
2023/08/01 11:23:01;;;;;;;8.10;5.40;;;;;;;;;;737337;190;920340;-59
2023/08/01 11:25:32;;;;;;;6.97;4.85;;;;;;;;;;743567;190;920014;-59
2023/08/01 11:27:57;;;;;;;7.97;5.60;;;;;;;;;;744134;190;918424;-67
2023/08/01 11:30:23;;;;;;;14.13;5.77;;;;;;;;;;737148;190;919707;-66
2023/08/01 11:32:49;;;;;;;6.23;5.07;;;;;;;;;;737608;190;920622;-67
2023/08/01 11:35:18;;;;;;;20.62;5.80;;;;;;;;;;743394;190;859754;-65
2023/08/01 11:37:43;;;;;;;7.20;5.60;;;;;;;;;;738039;190;817167;-66
2023/08/01 11:40:10;;;;;;;12.80;5.93;;;;;;;;;;738318;190;919347;-66
2023/08/01 11:42:36;;;;;;;7.97;5.43;;;;;;;;;;743029;190;770370;-60
2023/08/01 11:45:08;;;;;;;6.03;5.10;;;;;;;;;;738160;190;923554;-67
2023/08/01 11:47:34;;;;;;;9.60;6.00;;;;;;;;;;735374;190;916291;-59
2023/08/01 11:50:00;;;;;;;9.10;5.50;;;;;;;;;;736854;190;928176;-60
2023/08/01 11:52:26;;;;;;;8.00;5.50;;;;;;;;;;740841;190;919071;-67
2023/08/01 11:54:52;;;;;;;9.70;6.07;;;;;;;;;;737914;190;918187;-67
2023/08/01 11:57:18;;;;;;;10.13;6.03;;;;;;;;;;737123;190;918365;-65
2023/08/01 11:59:47;;;;;;;7.47;5.60;;;;;;;;;;741137;190;920865;-59
2023/08/01 12:02:12;;;;;;;8.90;5.03;;;;;;;;;;741222;190;916796;-66
2023/08/01 12:04:38;;;;;;;7.63;4.93;;;;;;;;;;736177;190;920253;-59
2023/08/01 12:07:04;;;;;;;10.93;6.50;;;;;;;;;;736344;190;922129;-59
2023/08/01 12:09:30;;;;;;;7.10;5.07;;;;;;;;;;740941;190;817399;-67
2023/08/01 12:11:58;;;;;;;8.70;6.03;;;;;;;;;;737447;190;919020;-59
2023/08/01 12:14:24;;;;;;;8.93;5.70;;;;;;;;;;736458;190;918555;-66
2023/08/01 12:16:49;;;;;;;7.53;5.77;;;;;;;;;;741187;190;918616;-65
2023/08/01 12:19:17;;;;;;;7.23;5.30;;;;;;;;;;737367;190;919546;-66
2023/08/01 12:21:43;;;;;;;5.80;4.70;;;;;;;;;;738281;188;794344;-58
2023/08/01 12:24:09;;;;;;;11.80;6.70;;;;;;;;;;740390;189;920921;-65
2023/08/01 12:26:35;;;;;;;10.10;5.90;;;;;;;;;;747192;187;919160;-66
2023/08/01 12:29:00;;;;;;;10.43;6.70;;;;;;;;;;738132;190;919792;-65
2023/08/01 12:31:26;;;;;;;7.83;5.40;;;;;;;;;;739577;190;918443;-59
2023/08/01 12:33:53;;;;;;;8.93;6.20;;;;;;;;;;742220;190;943239;-58
2023/08/01 12:36:19;;;;;;;10.07;6.10;;;;;;;;;;738090;190;877127;-59
2023/08/01 12:38:45;;;;;;;14.10;5.90;;;;;;;;;;737389;190;920006;-65
2023/08/01 12:41:10;;;;;;;9.37;4.80;;;;;;;;;;741419;190;906414;-58
2023/08/01 12:43:36;;;;;;;7.07;4.93;;;;;;;;;;740198;190;812661;-59
2023/08/01 12:46:02;;;;;;;8.47;5.23;;;;;;;;;;736552;190;916501;-66
2023/08/01 12:48:28;;;;;;;8.43;5.27;;;;;;;;;;740830;190;920092;-66
2023/08/01 12:50:54;;;;;;;6.20;4.40;;;;;;;;;;733817;190;916244;-66
2023/08/01 12:53:20;;;;;;;8.57;4.60;;;;;;;;;;738428;190;918796;-59
2023/08/01 12:55:45;;;;;;;7.63;4.50;;;;;;;;;;737740;190;916744;-59
2023/08/01 12:58:11;;;;;;;7.47;5.27;;;;;;;;;;741848;190;865460;-66
2023/08/01 13:00:37;;;;;;;7.40;5.07;;;;;;;;;;736310;190;913372;-65
2023/08/01 13:03:03;;;;;;;8.33;5.90;;;;;;;;;;736357;188;917818;-58
2023/08/01 13:05:29;;;;;;;7.13;4.90;;;;;;;;;;740479;190;918243;-65
2023/08/01 13:07:55;;;;;;;5.80;4.27;;;;;;;;;;738398;190;914011;-58
2023/08/01 13:10:21;;;;;;;6.47;4.73;;;;;;;;;;736682;190;918964;-59
2023/08/01 13:12:46;;;;;;;6.80;4.20;;;;;;;;;;741265;190;920777;-66
2023/08/01 13:15:12;;;;;;;7.47;4.00;;;;;;;;;;735879;190;920275;-65
2023/08/01 13:17:38;;;;;;;7.67;4.50;;;;;;;;;;737869;190;818780;-66
2023/08/01 13:20:04;;;;;;;6.97;4.30;;;;;;;;;;736692;190;919698;-64
2023/08/01 13:22:30;;;;;;;6.70;4.33;;;;;;;;;;739878;190;814842;-58
2023/08/01 13:24:56;;;;;;;7.40;5.10;;;;;;;;;;737887;190;833722;-65
2023/08/01 13:27:22;;;;;;;8.40;5.10;;;;;;;;;;736109;190;917301;-66
2023/08/01 13:29:50;;;;;;;6.73;4.80;;;;;;;;;;742424;190;912578;-66
2023/08/01 13:32:13;;;;;;;8.30;5.10;;;;;;;;;;737681;190;879722;-59
2023/08/01 13:34:39;;;;;;;8.93;4.90;;;;;;;;;;740684;189;915702;-66
2023/08/01 13:37:05;;;;;;;7.13;5.07;;;;;;;;;;744096;190;812725;-58
2023/08/01 13:39:31;;;;;;;6.10;3.70;;;;;;;;;;739169;190;902876;-66
2023/08/01 13:41:57;;;;;;;8.20;3.97;;;;;;;;;;737764;190;919489;-58
2023/08/01 13:44:23;;;;;;;5.43;3.60;;;;;;;;;;741621;190;899275;-57
2023/08/01 13:46:49;;;;;;;10.57;4.67;;;;;;;;;;738422;190;914474;-58
2023/08/01 13:49:15;;;;;;;6.10;4.30;;;;;;;;;;738841;190;939143;-63
2023/08/01 13:51:40;;;;;;;6.70;4.20;;;;;;;;;;739810;190;915531;-58
2023/08/01 13:54:06;;;;;;;7.10;3.83;;;;;;;;;;743495;190;916632;-59
2023/08/01 13:56:32;;;;;;;7.40;3.47;;;;;;;;;;736571;190;914551;-65
2023/08/01 13:58:58;;;;;;;6.23;3.57;;;;;;;;;;737159;190;921436;-63
2023/08/01 14:01:24;;;;;;;6.00;3.20;;;;;;;;;;741564;190;916795;-64
2023/08/01 14:03:50;;;;;;;7.70;3.70;;;;;;;;;;737541;190;920036;-65
2023/08/01 14:06:15;;;;;;;7.07;4.03;;;;;;;;;;737300;190;919202;-58
2023/08/01 14:08:41;;;;;;;6.03;3.70;;;;;;;;;;741928;190;901709;-64
2023/08/01 14:11:07;;;;;;;4.20;2.85;;;;;;;;;;736081;190;920215;-64
2023/08/01 14:13:33;;;;;;;6.57;3.83;;;;;;;;;;737582;190;918497;-63
2023/08/01 14:15:59;;;;;;;5.63;3.50;;;;;;;;;;735284;190;921135;-58
2023/08/01 14:18:25;;;;;;;4.53;3.37;;;;;;;;;;741865;187;813718;-58
2023/08/01 14:20:51;;;;;;;6.53;3.63;;;;;;;;;;735221;190;920188;-64